sensor_id;sensor_type;location;lat;lon;timestamp;temperature;humidity
17423;DHT22;8829;47.932;7.810;2023-03-01T00:00:43;-2.10;99.90
17423;DHT22;8829;47.932;7.810;2023-03-01T00:03:12;-2.10;99.90
17423;DHT22;8829;47.932;7.810;2023-03-01T00:05:45;-2.00;99.90
17423;DHT22;8829;47.932;7.810;2023-03-01T00:08:13;-2.10;99.90
17423;DHT22;8829;47.932;7.810;2023-03-01T00:10:40;-2.00;99.90
17423;DHT22;8829;47.932;7.810;2023-03-01T00:13:06;-2.00;99.90
17423;DHT22;8829;47.932;7.810;2023-03-01T00:15:33;-2.10;99.90
17423;DHT22;8829;47.932;7.810;2023-03-01T00:18:04;-2.10;99.90
17423;DHT22;8829;47.932;7.810;2023-03-01T00:20:30;-2.20;99.90
17423;DHT22;8829;47.932;7.810;2023-03-01T00:22:58;-2.30;99.90
17423;DHT22;8829;47.932;7.810;2023-03-01T00:25:25;-2.30;99.90
17423;DHT22;8829;47.932;7.810;2023-03-01T00:27:51;-2.30;99.90
17423;DHT22;8829;47.932;7.810;2023-03-01T00:30:18;-2.40;99.90
17423;DHT22;8829;47.932;7.810;2023-03-01T00:32:45;-2.40;99.90
17423;DHT22;8829;47.932;7.810;2023-03-01T00:35:12;-2.40;99.90
17423;DHT22;8829;47.932;7.810;2023-03-01T00:37:38;-2.50;99.90
17423;DHT22;8829;47.932;7.810;2023-03-01T00:40:09;-2.40;99.90
17423;DHT22;8829;47.932;7.810;2023-03-01T00:42:36;-2.40;99.90
17423;DHT22;8829;47.932;7.810;2023-03-01T00:45:04;-2.50;99.90
17423;DHT22;8829;47.932;7.810;2023-03-01T00:47:31;-2.40;99.90
17423;DHT22;8829;47.932;7.810;2023-03-01T00:49:57;-2.40;99.90
17423;DHT22;8829;47.932;7.810;2023-03-01T00:52:24;-2.40;99.90
17423;DHT22;8829;47.932;7.810;2023-03-01T00:54:52;-2.30;99.90
17423;DHT22;8829;47.932;7.810;2023-03-01T00:57:20;-2.40;99.90
17423;DHT22;8829;47.932;7.810;2023-03-01T00:59:47;-2.30;99.90
17423;DHT22;8829;47.932;7.810;2023-03-01T01:02:13;-2.20;99.90
17423;DHT22;8829;47.932;7.810;2023-03-01T01:04:40;-2.10;99.90
17423;DHT22;8829;47.932;7.810;2023-03-01T01:07:07;-2.20;99.90
17423;DHT22;8829;47.932;7.810;2023-03-01T01:09:34;-2.10;99.90
17423;DHT22;8829;47.932;7.810;2023-03-01T01:12:01;-2.30;99.90
17423;DHT22;8829;47.932;7.810;2023-03-01T01:14:29;-2.30;99.90
17423;DHT22;8829;47.932;7.810;2023-03-01T01:16:56;-2.30;99.90
17423;DHT22;8829;47.932;7.810;2023-03-01T01:19:23;-2.40;99.90
17423;DHT22;8829;47.932;7.810;2023-03-01T01:21:50;-2.50;99.90
17423;DHT22;8829;47.932;7.810;2023-03-01T01:24:17;-2.60;99.90
17423;DHT22;8829;47.932;7.810;2023-03-01T01:26:45;-2.60;99.90
17423;DHT22;8829;47.932;7.810;2023-03-01T01:29:12;-2.60;99.90
17423;DHT22;8829;47.932;7.810;2023-03-01T01:31:41;-2.40;99.90
17423;DHT22;8829;47.932;7.810;2023-03-01T01:34:13;-2.40;99.90
17423;DHT22;8829;47.932;7.810;2023-03-01T01:36:40;-2.50;99.90
17423;DHT22;8829;47.932;7.810;2023-03-01T01:39:07;-2.50;99.90
17423;DHT22;8829;47.932;7.810;2023-03-01T01:41:39;-2.60;99.90
17423;DHT22;8829;47.932;7.810;2023-03-01T01:44:16;-2.70;99.90
17423;DHT22;8829;47.932;7.810;2023-03-01T01:46:47;-2.70;99.90
17423;DHT22;8829;47.932;7.810;2023-03-01T01:49:22;-2.70;99.90
17423;DHT22;8829;47.932;7.810;2023-03-01T01:51:53;-2.70;99.90
17423;DHT22;8829;47.932;7.810;2023-03-01T01:54:24;-2.60;99.90
17423;DHT22;8829;47.932;7.810;2023-03-01T01:56:56;-2.60;99.90
17423;DHT22;8829;47.932;7.810;2023-03-01T01:59:26;-2.70;99.90
17423;DHT22;8829;47.932;7.810;2023-03-01T02:01:55;-2.70;99.90
17423;DHT22;8829;47.932;7.810;2023-03-01T02:04:24;-2.70;99.90
17423;DHT22;8829;47.932;7.810;2023-03-01T02:06:55;-2.70;99.90
17423;DHT22;8829;47.932;7.810;2023-03-01T02:09:24;-2.50;99.90
17423;DHT22;8829;47.932;7.810;2023-03-01T02:11:52;-2.40;99.90
17423;DHT22;8829;47.932;7.810;2023-03-01T02:14:19;-2.30;99.90
17423;DHT22;8829;47.932;7.810;2023-03-01T02:16:46;-2.40;99.90
17423;DHT22;8829;47.932;7.810;2023-03-01T02:19:26;-2.50;99.90
17423;DHT22;8829;47.932;7.810;2023-03-01T02:22:00;-2.60;99.90
17423;DHT22;8829;47.932;7.810;2023-03-01T02:24:37;-2.70;99.90
17423;DHT22;8829;47.932;7.810;2023-03-01T02:27:09;-2.70;99.90
17423;DHT22;8829;47.932;7.810;2023-03-01T02:29:37;-2.70;99.90
17423;DHT22;8829;47.932;7.810;2023-03-01T02:32:05;-2.70;99.90
17423;DHT22;8829;47.932;7.810;2023-03-01T02:34:32;-2.70;99.90
17423;DHT22;8829;47.932;7.810;2023-03-01T02:37:02;-2.70;99.90
17423;DHT22;8829;47.932;7.810;2023-03-01T02:39:33;-2.70;99.90
17423;DHT22;8829;47.932;7.810;2023-03-01T02:42:02;-2.90;99.90
17423;DHT22;8829;47.932;7.810;2023-03-01T02:44:30;-2.90;99.90
17423;DHT22;8829;47.932;7.810;2023-03-01T02:47:01;-2.90;99.90
17423;DHT22;8829;47.932;7.810;2023-03-01T02:49:31;-2.90;99.90
17423;DHT22;8829;47.932;7.810;2023-03-01T02:52:13;-3.00;99.90
17423;DHT22;8829;47.932;7.810;2023-03-01T02:54:48;-3.10;99.90
17423;DHT22;8829;47.932;7.810;2023-03-01T02:57:16;-3.10;99.90
17423;DHT22;8829;47.932;7.810;2023-03-01T02:59:44;-3.20;99.90
17423;DHT22;8829;47.932;7.810;2023-03-01T03:02:21;-3.20;99.90
17423;DHT22;8829;47.932;7.810;2023-03-01T03:05:02;-3.20;99.90
17423;DHT22;8829;47.932;7.810;2023-03-01T03:07:31;-3.10;99.90
17423;DHT22;8829;47.932;7.810;2023-03-01T03:09:58;-2.90;99.90
17423;DHT22;8829;47.932;7.810;2023-03-01T03:12:25;-2.80;99.90
17423;DHT22;8829;47.932;7.810;2023-03-01T03:14:52;-2.80;99.90
17423;DHT22;8829;47.932;7.810;2023-03-01T03:17:20;-2.80;99.90
17423;DHT22;8829;47.932;7.810;2023-03-01T03:19:47;-2.90;99.90
17423;DHT22;8829;47.932;7.810;2023-03-01T03:22:13;-3.00;99.90
17423;DHT22;8829;47.932;7.810;2023-03-01T03:24:40;-3.00;99.90
17423;DHT22;8829;47.932;7.810;2023-03-01T03:27:07;-3.00;99.90
17423;DHT22;8829;47.932;7.810;2023-03-01T03:29:34;-3.00;99.90
17423;DHT22;8829;47.932;7.810;2023-03-01T03:32:01;-3.10;99.90
17423;DHT22;8829;47.932;7.810;2023-03-01T03:34:30;-3.10;99.90
17423;DHT22;8829;47.932;7.810;2023-03-01T03:36:57;-3.10;99.90
17423;DHT22;8829;47.932;7.810;2023-03-01T03:39:25;-3.20;99.90
17423;DHT22;8829;47.932;7.810;2023-03-01T03:41:52;-3.20;99.90
17423;DHT22;8829;47.932;7.810;2023-03-01T03:44:18;-3.10;99.90
17423;DHT22;8829;47.932;7.810;2023-03-01T03:46:45;-3.00;99.90
17423;DHT22;8829;47.932;7.810;2023-03-01T03:49:12;-3.30;99.90
17423;DHT22;8829;47.932;7.810;2023-03-01T03:51:40;-3.40;99.90
17423;DHT22;8829;47.932;7.810;2023-03-01T03:54:06;-3.40;99.90
17423;DHT22;8829;47.932;7.810;2023-03-01T03:56:33;-3.40;99.90
17423;DHT22;8829;47.932;7.810;2023-03-01T03:59:00;-3.50;99.90
17423;DHT22;8829;47.932;7.810;2023-03-01T04:01:27;-3.40;99.90
17423;DHT22;8829;47.932;7.810;2023-03-01T04:03:53;-3.30;99.90
17423;DHT22;8829;47.932;7.810;2023-03-01T04:06:21;-3.30;99.90
17423;DHT22;8829;47.932;7.810;2023-03-01T04:08:49;-3.20;99.90
17423;DHT22;8829;47.932;7.810;2023-03-01T04:11:16;-3.10;99.90
17423;DHT22;8829;47.932;7.810;2023-03-01T04:13:56;-2.90;99.90
17423;DHT22;8829;47.932;7.810;2023-03-01T04:16:24;-2.80;99.90
17423;DHT22;8829;47.932;7.810;2023-03-01T04:18:51;-2.70;99.90
17423;DHT22;8829;47.932;7.810;2023-03-01T04:21:19;-2.50;99.90
17423;DHT22;8829;47.932;7.810;2023-03-01T04:23:45;-2.60;99.90
17423;DHT22;8829;47.932;7.810;2023-03-01T04:26:13;-2.80;99.90
17423;DHT22;8829;47.932;7.810;2023-03-01T04:28:41;-3.00;99.90
17423;DHT22;8829;47.932;7.810;2023-03-01T04:31:12;-3.10;99.90
17423;DHT22;8829;47.932;7.810;2023-03-01T04:33:43;-3.20;99.90
17423;DHT22;8829;47.932;7.810;2023-03-01T04:36:12;-3.10;99.90
17423;DHT22;8829;47.932;7.810;2023-03-01T04:38:40;-3.20;99.90
17423;DHT22;8829;47.932;7.810;2023-03-01T04:41:09;-3.20;99.90
17423;DHT22;8829;47.932;7.810;2023-03-01T04:43:38;-3.30;99.90
17423;DHT22;8829;47.932;7.810;2023-03-01T04:46:06;-3.30;99.90
17423;DHT22;8829;47.932;7.810;2023-03-01T04:48:35;-3.30;99.90
17423;DHT22;8829;47.932;7.810;2023-03-01T04:51:02;-3.40;99.90
17423;DHT22;8829;47.932;7.810;2023-03-01T04:53:30;-3.30;99.90
17423;DHT22;8829;47.932;7.810;2023-03-01T04:55:58;-3.30;99.90
17423;DHT22;8829;47.932;7.810;2023-03-01T04:58:26;-3.20;99.90
17423;DHT22;8829;47.932;7.810;2023-03-01T05:00:55;-3.30;99.90
17423;DHT22;8829;47.932;7.810;2023-03-01T05:03:22;-3.20;99.90
17423;DHT22;8829;47.932;7.810;2023-03-01T05:05:50;-3.00;99.90
17423;DHT22;8829;47.932;7.810;2023-03-01T05:08:17;-2.80;99.90
17423;DHT22;8829;47.932;7.810;2023-03-01T05:10:45;-2.60;99.90
17423;DHT22;8829;47.932;7.810;2023-03-01T05:13:13;-2.50;99.90
17423;DHT22;8829;47.932;7.810;2023-03-01T05:15:46;-2.30;99.90
17423;DHT22;8829;47.932;7.810;2023-03-01T05:18:14;-2.10;99.90
17423;DHT22;8829;47.932;7.810;2023-03-01T05:20:41;-2.00;99.90
17423;DHT22;8829;47.932;7.810;2023-03-01T05:23:08;-2.00;99.90
17423;DHT22;8829;47.932;7.810;2023-03-01T05:25:34;-1.90;99.90
17423;DHT22;8829;47.932;7.810;2023-03-01T05:28:06;-2.30;99.90
17423;DHT22;8829;47.932;7.810;2023-03-01T05:30:35;-2.50;99.90
17423;DHT22;8829;47.932;7.810;2023-03-01T05:33:01;-2.60;99.90
17423;DHT22;8829;47.932;7.810;2023-03-01T05:35:32;-2.70;99.90
17423;DHT22;8829;47.932;7.810;2023-03-01T05:37:59;-2.80;99.90
17423;DHT22;8829;47.932;7.810;2023-03-01T05:40:26;-2.80;99.90
17423;DHT22;8829;47.932;7.810;2023-03-01T05:42:54;-2.80;99.90
17423;DHT22;8829;47.932;7.810;2023-03-01T05:45:23;-2.70;99.90
17423;DHT22;8829;47.932;7.810;2023-03-01T05:47:50;-2.70;99.90
17423;DHT22;8829;47.932;7.810;2023-03-01T05:50:19;-2.40;99.90
17423;DHT22;8829;47.932;7.810;2023-03-01T05:52:49;-2.20;99.90
17423;DHT22;8829;47.932;7.810;2023-03-01T05:55:17;-2.00;99.90
17423;DHT22;8829;47.932;7.810;2023-03-01T05:57:44;-1.90;99.90
17423;DHT22;8829;47.932;7.810;2023-03-01T06:00:12;-1.90;99.90
17423;DHT22;8829;47.932;7.810;2023-03-01T06:02:39;-2.00;99.90
17423;DHT22;8829;47.932;7.810;2023-03-01T06:05:08;-2.50;99.90
17423;DHT22;8829;47.932;7.810;2023-03-01T06:07:35;-2.70;99.90
17423;DHT22;8829;47.932;7.810;2023-03-01T06:10:03;-2.50;99.90
17423;DHT22;8829;47.932;7.810;2023-03-01T06:12:31;-2.30;99.90
17423;DHT22;8829;47.932;7.810;2023-03-01T06:14:58;-2.20;99.90
17423;DHT22;8829;47.932;7.810;2023-03-01T06:17:24;-2.30;99.90
17423;DHT22;8829;47.932;7.810;2023-03-01T06:19:51;-2.40;99.90
17423;DHT22;8829;47.932;7.810;2023-03-01T06:22:18;-2.30;99.90
17423;DHT22;8829;47.932;7.810;2023-03-01T06:24:44;-2.60;99.90
17423;DHT22;8829;47.932;7.810;2023-03-01T06:27:12;-2.40;99.90
17423;DHT22;8829;47.932;7.810;2023-03-01T06:29:39;-2.40;99.90
17423;DHT22;8829;47.932;7.810;2023-03-01T06:32:06;-2.30;99.90
17423;DHT22;8829;47.932;7.810;2023-03-01T06:34:33;-2.10;99.90
17423;DHT22;8829;47.932;7.810;2023-03-01T06:37:00;-2.30;99.90
17423;DHT22;8829;47.932;7.810;2023-03-01T06:39:28;-2.40;99.90
17423;DHT22;8829;47.932;7.810;2023-03-01T06:41:54;-2.30;99.90
17423;DHT22;8829;47.932;7.810;2023-03-01T06:44:23;-2.10;99.90
17423;DHT22;8829;47.932;7.810;2023-03-01T06:46:50;-2.10;99.90
17423;DHT22;8829;47.932;7.810;2023-03-01T06:49:16;-2.00;99.90
17423;DHT22;8829;47.932;7.810;2023-03-01T06:51:43;-1.90;99.90
17423;DHT22;8829;47.932;7.810;2023-03-01T06:54:10;-1.90;99.90
17423;DHT22;8829;47.932;7.810;2023-03-01T06:56:36;-2.00;99.90
17423;DHT22;8829;47.932;7.810;2023-03-01T06:59:03;-2.00;99.90
17423;DHT22;8829;47.932;7.810;2023-03-01T07:01:31;-2.00;99.90
17423;DHT22;8829;47.932;7.810;2023-03-01T07:03:58;-2.00;99.90
17423;DHT22;8829;47.932;7.810;2023-03-01T07:06:25;-2.00;99.90
17423;DHT22;8829;47.932;7.810;2023-03-01T07:08:51;-1.80;99.90
17423;DHT22;8829;47.932;7.810;2023-03-01T07:11:18;-1.80;99.90
17423;DHT22;8829;47.932;7.810;2023-03-01T07:13:44;-2.00;99.90
17423;DHT22;8829;47.932;7.810;2023-03-01T07:16:11;-1.80;99.90
17423;DHT22;8829;47.932;7.810;2023-03-01T07:18:41;-1.60;99.90
17423;DHT22;8829;47.932;7.810;2023-03-01T07:21:09;-1.40;99.90
17423;DHT22;8829;47.932;7.810;2023-03-01T07:23:38;-1.40;99.90
17423;DHT22;8829;47.932;7.810;2023-03-01T07:26:05;-1.30;99.90
17423;DHT22;8829;47.932;7.810;2023-03-01T07:28:31;-1.20;99.90
17423;DHT22;8829;47.932;7.810;2023-03-01T07:31:01;-1.20;99.90
17423;DHT22;8829;47.932;7.810;2023-03-01T07:33:28;-1.30;99.90
17423;DHT22;8829;47.932;7.810;2023-03-01T07:35:57;-1.50;99.90
17423;DHT22;8829;47.932;7.810;2023-03-01T07:38:24;-1.30;99.90
17423;DHT22;8829;47.932;7.810;2023-03-01T07:40:51;-1.40;99.90
17423;DHT22;8829;47.932;7.810;2023-03-01T07:43:18;-1.70;99.90
17423;DHT22;8829;47.932;7.810;2023-03-01T07:45:45;-1.70;99.90
17423;DHT22;8829;47.932;7.810;2023-03-01T07:48:12;-1.80;99.90
17423;DHT22;8829;47.932;7.810;2023-03-01T07:50:39;-1.70;99.90
17423;DHT22;8829;47.932;7.810;2023-03-01T07:53:08;-1.70;99.90
17423;DHT22;8829;47.932;7.810;2023-03-01T07:55:35;-1.80;99.90
17423;DHT22;8829;47.932;7.810;2023-03-01T07:58:01;-1.80;99.90
17423;DHT22;8829;47.932;7.810;2023-03-01T08:00:28;-1.80;99.90
17423;DHT22;8829;47.932;7.810;2023-03-01T08:02:55;-1.60;99.90
17423;DHT22;8829;47.932;7.810;2023-03-01T08:05:24;-1.50;99.90
17423;DHT22;8829;47.932;7.810;2023-03-01T08:07:51;-1.40;99.90
17423;DHT22;8829;47.932;7.810;2023-03-01T08:10:20;-1.40;99.90
17423;DHT22;8829;47.932;7.810;2023-03-01T08:12:47;-1.30;99.90
17423;DHT22;8829;47.932;7.810;2023-03-01T08:15:13;-1.20;99.90
17423;DHT22;8829;47.932;7.810;2023-03-01T08:17:40;-1.20;99.90
17423;DHT22;8829;47.932;7.810;2023-03-01T08:20:08;-1.30;99.90
17423;DHT22;8829;47.932;7.810;2023-03-01T08:22:37;-1.20;99.90
17423;DHT22;8829;47.932;7.810;2023-03-01T08:25:05;-1.20;99.90
17423;DHT22;8829;47.932;7.810;2023-03-01T08:27:33;-1.00;99.90
17423;DHT22;8829;47.932;7.810;2023-03-01T08:29:59;-0.90;99.90
17423;DHT22;8829;47.932;7.810;2023-03-01T08:32:26;-0.80;99.90
17423;DHT22;8829;47.932;7.810;2023-03-01T08:34:53;-0.80;99.90
17423;DHT22;8829;47.932;7.810;2023-03-01T08:37:19;-0.90;99.90
17423;DHT22;8829;47.932;7.810;2023-03-01T08:39:46;-1.00;99.90
17423;DHT22;8829;47.932;7.810;2023-03-01T08:42:13;-0.90;99.90
17423;DHT22;8829;47.932;7.810;2023-03-01T08:44:41;-1.00;99.90
17423;DHT22;8829;47.932;7.810;2023-03-01T08:47:07;-1.10;99.90
17423;DHT22;8829;47.932;7.810;2023-03-01T08:49:34;-1.00;99.90
17423;DHT22;8829;47.932;7.810;2023-03-01T08:52:02;-1.10;99.90
17423;DHT22;8829;47.932;7.810;2023-03-01T08:54:28;-1.00;99.90
17423;DHT22;8829;47.932;7.810;2023-03-01T08:56:55;-1.00;99.90
17423;DHT22;8829;47.932;7.810;2023-03-01T08:59:25;-0.90;99.90
17423;DHT22;8829;47.932;7.810;2023-03-01T09:01:53;-1.00;99.90
17423;DHT22;8829;47.932;7.810;2023-03-01T09:04:20;-0.90;99.90
17423;DHT22;8829;47.932;7.810;2023-03-01T09:06:47;-0.80;99.90
17423;DHT22;8829;47.932;7.810;2023-03-01T09:09:15;-0.70;99.90
17423;DHT22;8829;47.932;7.810;2023-03-01T09:11:42;-0.40;99.90
17423;DHT22;8829;47.932;7.810;2023-03-01T09:14:11;-0.40;99.90
17423;DHT22;8829;47.932;7.810;2023-03-01T09:16:38;-0.60;99.90
17423;DHT22;8829;47.932;7.810;2023-03-01T09:19:06;-0.60;99.90
17423;DHT22;8829;47.932;7.810;2023-03-01T09:21:33;-0.30;99.90
17423;DHT22;8829;47.932;7.810;2023-03-01T09:24:00;0.10;99.90
17423;DHT22;8829;47.932;7.810;2023-03-01T09:26:26;0.10;99.90
17423;DHT22;8829;47.932;7.810;2023-03-01T09:28:55;0.40;99.90
17423;DHT22;8829;47.932;7.810;2023-03-01T09:31:23;0.60;99.90
17423;DHT22;8829;47.932;7.810;2023-03-01T09:33:51;0.70;99.90
17423;DHT22;8829;47.932;7.810;2023-03-01T09:36:21;1.00;99.90
17423;DHT22;8829;47.932;7.810;2023-03-01T09:38:48;1.20;99.90
17423;DHT22;8829;47.932;7.810;2023-03-01T09:41:26;1.00;99.90
17423;DHT22;8829;47.932;7.810;2023-03-01T09:43:58;0.70;99.90
17423;DHT22;8829;47.932;7.810;2023-03-01T09:46:26;0.60;99.90
17423;DHT22;8829;47.932;7.810;2023-03-01T09:48:57;0.60;99.90
17423;DHT22;8829;47.932;7.810;2023-03-01T09:51:31;0.50;99.90
17423;DHT22;8829;47.932;7.810;2023-03-01T09:53:58;0.60;99.90
17423;DHT22;8829;47.932;7.810;2023-03-01T09:56:32;0.40;99.90
17423;DHT22;8829;47.932;7.810;2023-03-01T09:59:11;0.40;99.90
17423;DHT22;8829;47.932;7.810;2023-03-01T10:01:49;0.20;99.90
17423;DHT22;8829;47.932;7.810;2023-03-01T10:04:32;0.00;99.90
17423;DHT22;8829;47.932;7.810;2023-03-01T10:07:17;0.00;99.90
17423;DHT22;8829;47.932;7.810;2023-03-01T10:09:47;0.00;99.90
17423;DHT22;8829;47.932;7.810;2023-03-01T10:12:16;0.10;99.90
17423;DHT22;8829;47.932;7.810;2023-03-01T10:14:50;0.20;99.90
17423;DHT22;8829;47.932;7.810;2023-03-01T10:17:26;0.30;99.90
17423;DHT22;8829;47.932;7.810;2023-03-01T10:19:55;0.20;99.90
17423;DHT22;8829;47.932;7.810;2023-03-01T10:22:26;0.00;99.90
17423;DHT22;8829;47.932;7.810;2023-03-01T10:24:56;0.00;99.90
17423;DHT22;8829;47.932;7.810;2023-03-01T10:27:25;0.10;99.90
17423;DHT22;8829;47.932;7.810;2023-03-01T10:30:02;0.10;99.90
17423;DHT22;8829;47.932;7.810;2023-03-01T10:32:32;0.10;99.90
17423;DHT22;8829;47.932;7.810;2023-03-01T10:34:59;0.10;99.90
17423;DHT22;8829;47.932;7.810;2023-03-01T10:37:27;0.30;99.90
17423;DHT22;8829;47.932;7.810;2023-03-01T10:39:58;0.40;99.90
17423;DHT22;8829;47.932;7.810;2023-03-01T10:42:28;0.40;99.90
17423;DHT22;8829;47.932;7.810;2023-03-01T10:44:55;0.50;99.90
17423;DHT22;8829;47.932;7.810;2023-03-01T10:47:24;0.50;99.90
17423;DHT22;8829;47.932;7.810;2023-03-01T10:49:54;0.60;99.90
17423;DHT22;8829;47.932;7.810;2023-03-01T10:52:23;0.70;99.90
17423;DHT22;8829;47.932;7.810;2023-03-01T10:54:55;0.70;99.90
17423;DHT22;8829;47.932;7.810;2023-03-01T10:57:33;0.80;99.90
17423;DHT22;8829;47.932;7.810;2023-03-01T11:00:16;0.80;99.90
17423;DHT22;8829;47.932;7.810;2023-03-01T11:02:47;0.90;99.90
17423;DHT22;8829;47.932;7.810;2023-03-01T11:05:19;0.90;99.90
17423;DHT22;8829;47.932;7.810;2023-03-01T11:07:50;1.00;99.90
17423;DHT22;8829;47.932;7.810;2023-03-01T11:10:20;1.10;99.90
17423;DHT22;8829;47.932;7.810;2023-03-01T11:12:46;1.20;99.90
17423;DHT22;8829;47.932;7.810;2023-03-01T11:15:21;1.30;99.90
17423;DHT22;8829;47.932;7.810;2023-03-01T11:17:49;1.30;99.90
17423;DHT22;8829;47.932;7.810;2023-03-01T11:20:23;1.40;99.90
17423;DHT22;8829;47.932;7.810;2023-03-01T11:22:53;1.60;99.90
17423;DHT22;8829;47.932;7.810;2023-03-01T11:25:24;1.60;99.90
17423;DHT22;8829;47.932;7.810;2023-03-01T11:27:52;1.70;99.90
17423;DHT22;8829;47.932;7.810;2023-03-01T11:30:22;1.70;99.90
17423;DHT22;8829;47.932;7.810;2023-03-01T11:33:01;1.80;99.90
17423;DHT22;8829;47.932;7.810;2023-03-01T11:35:29;1.80;99.90
17423;DHT22;8829;47.932;7.810;2023-03-01T11:38:05;1.80;99.90
17423;DHT22;8829;47.932;7.810;2023-03-01T11:40:40;1.80;99.90
17423;DHT22;8829;47.932;7.810;2023-03-01T11:43:14;1.90;99.90
17423;DHT22;8829;47.932;7.810;2023-03-01T11:45:50;2.00;99.90
17423;DHT22;8829;47.932;7.810;2023-03-01T11:48:48;2.00;99.90
17423;DHT22;8829;47.932;7.810;2023-03-01T11:51:23;2.10;99.90
17423;DHT22;8829;47.932;7.810;2023-03-01T11:53:59;2.10;99.90
17423;DHT22;8829;47.932;7.810;2023-03-01T11:56:32;2.10;99.90
17423;DHT22;8829;47.932;7.810;2023-03-01T11:59:18;2.20;99.90
17423;DHT22;8829;47.932;7.810;2023-03-01T12:02:01;2.30;99.90
17423;DHT22;8829;47.932;7.810;2023-03-01T12:07:44;2.40;99.90
17423;DHT22;8829;47.932;7.810;2023-03-01T12:10:26;2.40;99.90
17423;DHT22;8829;47.932;7.810;2023-03-01T12:16:13;2.50;99.90
17423;DHT22;8829;47.932;7.810;2023-03-01T12:19:06;2.50;99.90
17423;DHT22;8829;47.932;7.810;2023-03-01T12:21:47;2.50;99.90
17423;DHT22;8829;47.932;7.810;2023-03-01T12:24:32;2.50;99.90
17423;DHT22;8829;47.932;7.810;2023-03-01T12:30:21;2.70;99.90
17423;DHT22;8829;47.932;7.810;2023-03-01T12:33:02;2.70;99.90
17423;DHT22;8829;47.932;7.810;2023-03-01T12:35:45;2.70;99.90
17423;DHT22;8829;47.932;7.810;2023-03-01T12:38:24;2.80;99.90
17423;DHT22;8829;47.932;7.810;2023-03-01T12:41:27;2.90;99.90
17423;DHT22;8829;47.932;7.810;2023-03-01T12:44:03;2.90;99.90
17423;DHT22;8829;47.932;7.810;2023-03-01T12:46:42;3.00;99.90
17423;DHT22;8829;47.932;7.810;2023-03-01T12:49:14;3.10;99.90
17423;DHT22;8829;47.932;7.810;2023-03-01T12:51:50;3.10;99.90
17423;DHT22;8829;47.932;7.810;2023-03-01T12:54:22;3.20;99.90
17423;DHT22;8829;47.932;7.810;2023-03-01T12:56:52;3.20;99.90
17423;DHT22;8829;47.932;7.810;2023-03-01T12:59:24;3.30;99.90
17423;DHT22;8829;47.932;7.810;2023-03-01T13:02:02;3.30;99.90
17423;DHT22;8829;47.932;7.810;2023-03-01T13:04:45;3.40;99.90
17423;DHT22;8829;47.932;7.810;2023-03-01T13:07:23;3.50;99.90
17423;DHT22;8829;47.932;7.810;2023-03-01T13:09:59;3.60;99.90
17423;DHT22;8829;47.932;7.810;2023-03-01T13:12:52;3.60;99.90
17423;DHT22;8829;47.932;7.810;2023-03-01T13:15:33;3.60;99.90
17423;DHT22;8829;47.932;7.810;2023-03-01T13:18:03;3.70;99.90
17423;DHT22;8829;47.932;7.810;2023-03-01T13:20:33;3.70;99.90
17423;DHT22;8829;47.932;7.810;2023-03-01T13:23:06;3.70;99.90
17423;DHT22;8829;47.932;7.810;2023-03-01T13:25:33;3.70;99.90
17423;DHT22;8829;47.932;7.810;2023-03-01T13:28:39;3.70;99.90
17423;DHT22;8829;47.932;7.810;2023-03-01T13:31:07;3.80;99.90
17423;DHT22;8829;47.932;7.810;2023-03-01T13:33:45;3.80;99.90
17423;DHT22;8829;47.932;7.810;2023-03-01T13:36:46;3.90;99.90
17423;DHT22;8829;47.932;7.810;2023-03-01T13:39:28;4.00;99.90
17423;DHT22;8829;47.932;7.810;2023-03-01T13:41:57;4.10;99.90
17423;DHT22;8829;47.932;7.810;2023-03-01T13:44:29;4.30;99.90
17423;DHT22;8829;47.932;7.810;2023-03-01T13:46:58;4.40;99.90
17423;DHT22;8829;47.932;7.810;2023-03-01T13:49:28;4.60;99.90
17423;DHT22;8829;47.932;7.810;2023-03-01T13:51:55;4.50;99.90
17423;DHT22;8829;47.932;7.810;2023-03-01T13:54:28;4.60;99.90
17423;DHT22;8829;47.932;7.810;2023-03-01T13:56:57;4.70;99.90
17423;DHT22;8829;47.932;7.810;2023-03-01T13:59:24;4.80;99.90
17423;DHT22;8829;47.932;7.810;2023-03-01T14:01:56;4.90;99.90
17423;DHT22;8829;47.932;7.810;2023-03-01T14:04:27;4.90;99.90
17423;DHT22;8829;47.932;7.810;2023-03-01T14:07:09;4.90;99.90
17423;DHT22;8829;47.932;7.810;2023-03-01T14:09:39;4.90;99.90
17423;DHT22;8829;47.932;7.810;2023-03-01T14:12:22;4.90;99.90
17423;DHT22;8829;47.932;7.810;2023-03-01T14:14:56;4.90;99.90
17423;DHT22;8829;47.932;7.810;2023-03-01T14:17:42;4.90;99.90
17423;DHT22;8829;47.932;7.810;2023-03-01T14:20:17;4.90;99.90
17423;DHT22;8829;47.932;7.810;2023-03-01T14:22:45;4.90;99.90
17423;DHT22;8829;47.932;7.810;2023-03-01T14:25:24;5.00;99.90
17423;DHT22;8829;47.932;7.810;2023-03-01T14:27:59;5.10;99.90
17423;DHT22;8829;47.932;7.810;2023-03-01T14:30:30;5.10;99.90
17423;DHT22;8829;47.932;7.810;2023-03-01T14:32:59;5.20;99.90
17423;DHT22;8829;47.932;7.810;2023-03-01T14:35:29;5.10;99.90
17423;DHT22;8829;47.932;7.810;2023-03-01T14:37:56;5.20;99.90
17423;DHT22;8829;47.932;7.810;2023-03-01T14:40:26;5.20;99.90
17423;DHT22;8829;47.932;7.810;2023-03-01T14:42:56;5.40;99.90
17423;DHT22;8829;47.932;7.810;2023-03-01T14:45:25;5.30;99.90
17423;DHT22;8829;47.932;7.810;2023-03-01T14:47:53;5.30;99.90
17423;DHT22;8829;47.932;7.810;2023-03-01T14:50:24;5.30;99.90
17423;DHT22;8829;47.932;7.810;2023-03-01T14:52:56;5.20;99.90
17423;DHT22;8829;47.932;7.810;2023-03-01T14:55:28;5.10;99.90
17423;DHT22;8829;47.932;7.810;2023-03-01T14:57:56;5.20;99.90
17423;DHT22;8829;47.932;7.810;2023-03-01T15:00:26;5.30;99.90
17423;DHT22;8829;47.932;7.810;2023-03-01T15:02:55;5.30;99.90
17423;DHT22;8829;47.932;7.810;2023-03-01T15:05:26;5.40;99.90
17423;DHT22;8829;47.932;7.810;2023-03-01T15:07:56;5.40;99.90
17423;DHT22;8829;47.932;7.810;2023-03-01T15:10:26;5.40;99.90
17423;DHT22;8829;47.932;7.810;2023-03-01T15:12:53;5.50;99.90
17423;DHT22;8829;47.932;7.810;2023-03-01T15:15:29;5.50;99.90
17423;DHT22;8829;47.932;7.810;2023-03-01T15:17:58;5.60;99.90
17423;DHT22;8829;47.932;7.810;2023-03-01T15:20:27;5.70;99.90
17423;DHT22;8829;47.932;7.810;2023-03-01T15:22:57;5.60;99.90
17423;DHT22;8829;47.932;7.810;2023-03-01T15:25:25;5.60;99.90
17423;DHT22;8829;47.932;7.810;2023-03-01T15:27:54;5.60;99.90
17423;DHT22;8829;47.932;7.810;2023-03-01T15:30:23;5.50;99.90
17423;DHT22;8829;47.932;7.810;2023-03-01T15:35:54;5.50;99.90
17423;DHT22;8829;47.932;7.810;2023-03-01T15:38:32;5.50;99.90
17423;DHT22;8829;47.932;7.810;2023-03-01T15:41:00;5.40;99.90
17423;DHT22;8829;47.932;7.810;2023-03-01T15:43:38;5.30;99.90
17423;DHT22;8829;47.932;7.810;2023-03-01T15:46:05;5.20;99.90
17423;DHT22;8829;47.932;7.810;2023-03-01T15:48:44;5.10;99.90
17423;DHT22;8829;47.932;7.810;2023-03-01T15:51:13;5.00;99.90
17423;DHT22;8829;47.932;7.810;2023-03-01T15:53:43;5.00;99.90
17423;DHT22;8829;47.932;7.810;2023-03-01T15:56:13;5.00;99.90
17423;DHT22;8829;47.932;7.810;2023-03-01T15:58:40;4.90;99.90
17423;DHT22;8829;47.932;7.810;2023-03-01T16:01:11;4.90;99.90
17423;DHT22;8829;47.932;7.810;2023-03-01T16:03:38;4.80;99.90
17423;DHT22;8829;47.932;7.810;2023-03-01T16:06:05;4.80;99.90
17423;DHT22;8829;47.932;7.810;2023-03-01T16:08:32;4.80;99.90
17423;DHT22;8829;47.932;7.810;2023-03-01T16:11:00;4.70;99.90
17423;DHT22;8829;47.932;7.810;2023-03-01T16:13:30;4.70;99.90
17423;DHT22;8829;47.932;7.810;2023-03-01T16:15:57;4.70;99.90
17423;DHT22;8829;47.932;7.810;2023-03-01T16:18:23;4.70;99.90
17423;DHT22;8829;47.932;7.810;2023-03-01T16:20:50;4.60;99.90
17423;DHT22;8829;47.932;7.810;2023-03-01T16:23:18;4.40;99.90